Terminal Aerodrome Forecast
Issued by NWS Oklahoma City, OK

Home | Current Version | Previous Version | Text Only | Print | Product List | Glossary On
Versions: 1 2 3 4 5 6 7 8 9 10 11 12 13 14 15 16 17 18
000
FTUS44 KOUN 300520
TAFOUN
TAF
KOUN 300520Z 3006/3106 29012KT P6SM SCT025
     FM300800 30012KT P6SM BKN025
     FM301400 31015G24KT P6SM BKN030
     FM301800 31014G22KT P6SM SCT040
     FM302200 36008KT P6SM SKC=

USA.gov is the U.S. government's official web portal to all federal, state and local government web resources and services.